createdAt,value
2022-10-25T00:01:18.711Z,8.65
2022-10-25T00:03:46.098Z,13.48
2022-10-25T00:06:13.777Z,7.82
2022-10-25T00:08:40.805Z,9.50
2022-10-25T00:11:11.193Z,10.18
2022-10-25T00:13:38.439Z,10.43
2022-10-25T00:16:05.626Z,9.70
2022-10-25T00:18:33.462Z,7.55
2022-10-25T00:21:04.453Z,7.05
2022-10-25T00:23:31.466Z,7.60
2022-10-25T00:26:07.402Z,23.20
2022-10-25T00:28:34.529Z,9.93
2022-10-25T00:31:07.221Z,9.75
2022-10-25T00:36:13.858Z,24.88
2022-10-25T00:38:41.803Z,7.25
2022-10-25T00:41:10.321Z,5.65
2022-10-25T00:43:51.387Z,12.57
2022-10-25T00:46:18.337Z,6.93
2022-10-25T00:49:03.499Z,10.63
2022-10-25T00:51:37.236Z,19.15
2022-10-25T00:54:05.799Z,15.35
2022-10-25T00:56:35.414Z,11.07
2022-10-25T00:59:07.242Z,7.68
2022-10-25T01:01:34.790Z,6.53
2022-10-25T01:04:07.433Z,10.18
2022-10-25T01:06:39.769Z,10.90
2022-10-25T01:09:09.742Z,11.00
2022-10-25T01:11:37.755Z,6.18
2022-10-25T01:14:07.686Z,9.32
2022-10-25T01:16:43.560Z,7.28
2022-10-25T01:19:13.410Z,9.48
2022-10-25T01:21:45.764Z,7.97
2022-10-25T01:24:31.329Z,8.82
2022-10-25T01:27:01.038Z,7.28
2022-10-25T01:29:39.479Z,4.47
2022-10-25T01:32:13.481Z,13.27
2022-10-25T01:34:58.794Z,7.65
2022-10-25T01:37:45.129Z,14.80
2022-10-25T01:40:31.246Z,8.35
2022-10-25T01:43:30.473Z,7.32
2022-10-25T01:46:10.707Z,5.05
2022-10-25T01:48:45.584Z,6.22
2022-10-25T01:51:16.926Z,6.47
2022-10-25T01:53:51.852Z,9.15
2022-10-25T01:56:33.112Z,14.40
2022-10-25T01:59:18.403Z,5.18
2022-10-25T02:01:57.598Z,11.43
2022-10-25T02:04:39.954Z,15.25
2022-10-25T02:07:25.197Z,9.05
2022-10-25T02:10:01.895Z,7.85
2022-10-25T02:12:36.718Z,12.25
2022-10-25T02:15:15.717Z,5.70
2022-10-25T02:17:53.398Z,9.80
2022-10-25T02:20:24.365Z,8.27
2022-10-25T02:22:53.565Z,5.95
2022-10-25T02:25:21.744Z,17.67
2022-10-25T02:27:52.641Z,9.77
2022-10-25T02:30:20.038Z,9.65
2022-10-25T02:32:47.070Z,5.30
2022-10-25T02:35:15.753Z,8.98
2022-10-25T02:37:43.173Z,14.30
2022-10-25T02:40:11.505Z,12.40
2022-10-25T02:42:38.491Z,10.88
2022-10-25T02:45:06.271Z,8.70
2022-10-25T02:47:33.352Z,9.60
2022-10-25T02:50:00.416Z,10.90
2022-10-25T02:52:27.429Z,10.07
2022-10-25T02:54:54.438Z,11.20
2022-10-25T02:57:21.409Z,13.38
2022-10-25T02:59:48.607Z,17.75
2022-10-25T03:02:15.677Z,6.72
2022-10-25T03:04:42.703Z,20.38
2022-10-25T03:07:09.822Z,6.57
2022-10-25T03:09:36.881Z,16.58
2022-10-25T03:12:04.008Z,25.80
2022-10-25T03:14:30.990Z,14.25
2022-10-25T03:16:58.005Z,14.40
2022-10-25T03:19:25.021Z,4.78
2022-10-25T03:21:52.160Z,17.88
2022-10-25T03:24:19.152Z,8.13
2022-10-25T03:26:46.132Z,7.88
2022-10-25T03:29:13.120Z,10.05
2022-10-25T03:31:40.105Z,12.90
2022-10-25T03:34:07.093Z,11.50
2022-10-25T03:36:34.151Z,9.32
2022-10-25T03:39:01.147Z,10.30
2022-10-25T03:41:28.122Z,8.90
2022-10-25T03:43:55.881Z,9.65
2022-10-25T03:46:22.845Z,10.00
2022-10-25T03:48:49.839Z,17.15
2022-10-25T03:51:16.850Z,6.22
2022-10-25T03:53:43.846Z,11.45
2022-10-25T03:56:10.809Z,18.38
2022-10-25T03:58:37.814Z,16.65
2022-10-25T04:01:08.736Z,13.07
2022-10-25T04:03:36.095Z,13.18
2022-10-25T04:06:03.099Z,15.30
2022-10-25T04:08:30.087Z,5.60
2022-10-25T04:10:57.127Z,8.98
2022-10-25T04:13:24.158Z,7.82
2022-10-25T04:15:51.132Z,26.70
2022-10-25T04:18:19.254Z,13.68
2022-10-25T04:20:46.289Z,6.78
2022-10-25T04:23:13.264Z,11.65
2022-10-25T04:25:40.276Z,6.72
2022-10-25T04:28:07.345Z,12.50
2022-10-25T04:30:37.931Z,12.65
2022-10-25T04:33:06.746Z,8.35
2022-10-25T04:35:33.753Z,8.18
2022-10-25T04:38:00.773Z,11.95
2022-10-25T04:40:27.752Z,24.95
2022-10-25T04:42:54.841Z,13.90
2022-10-25T04:45:21.841Z,5.35
2022-10-25T04:47:48.828Z,7.38
2022-10-25T04:50:15.935Z,10.40
2022-10-25T04:52:42.938Z,10.88
2022-10-25T04:55:09.930Z,5.40
2022-10-25T04:57:36.992Z,8.30
2022-10-25T05:00:05.045Z,11.60
2022-10-25T05:02:32.139Z,13.35
2022-10-25T05:04:59.319Z,9.93
2022-10-25T05:07:26.362Z,14.80
2022-10-25T05:09:53.324Z,12.35
2022-10-25T05:12:20.365Z,9.18
2022-10-25T05:14:47.386Z,8.65
2022-10-25T05:17:14.369Z,9.05
2022-10-25T05:19:41.334Z,8.40
2022-10-25T05:22:08.336Z,4.78
2022-10-25T05:24:35.358Z,17.98
2022-10-25T05:27:03.996Z,12.02
2022-10-25T05:29:31.044Z,10.82
2022-10-25T05:31:58.318Z,14.60
2022-10-25T05:34:25.590Z,6.95
2022-10-25T05:36:53.151Z,7.60
2022-10-25T05:39:20.411Z,11.75
2022-10-25T05:41:47.414Z,8.77
2022-10-25T05:44:16.544Z,9.70
2022-10-25T05:46:44.718Z,10.52
2022-10-25T05:49:12.420Z,7.88
2022-10-25T05:51:39.562Z,10.27
2022-10-25T05:54:10.371Z,15.80
2022-10-25T05:56:37.744Z,16.63
2022-10-25T05:59:09.907Z,17.10
2022-10-25T06:01:40.549Z,19.30
2022-10-25T06:04:08.477Z,15.60
2022-10-25T06:06:37.334Z,14.90
2022-10-25T06:09:05.300Z,25.08
2022-10-25T06:11:33.026Z,5.53
2022-10-25T06:14:00.072Z,10.50
2022-10-25T06:16:27.160Z,6.18
2022-10-25T06:18:54.655Z,11.80
2022-10-25T06:21:24.899Z,4.78
2022-10-25T06:23:52.314Z,13.68
2022-10-25T06:26:21.904Z,13.10
2022-10-25T06:28:53.142Z,19.30
2022-10-25T06:31:20.782Z,7.32
2022-10-25T06:33:47.938Z,8.85
2022-10-25T06:36:23.177Z,7.03
2022-10-25T06:38:50.802Z,22.92
2022-10-25T06:41:23.065Z,13.98
2022-10-25T06:43:51.012Z,12.40
2022-10-25T06:46:27.032Z,11.70
2022-10-25T06:48:55.985Z,11.48
2022-10-25T06:51:24.722Z,10.77
2022-10-25T06:53:56.334Z,10.23
2022-10-25T06:56:24.001Z,8.07
2022-10-25T06:58:51.209Z,11.00
2022-10-25T07:01:20.264Z,18.02
2022-10-25T07:03:50.262Z,9.63
2022-10-25T07:06:19.117Z,13.70
2022-10-25T07:08:47.562Z,15.20
2022-10-25T07:11:17.497Z,11.10
2022-10-25T07:13:45.039Z,13.77
2022-10-25T07:16:17.129Z,16.40
2022-10-25T07:18:44.512Z,26.48
2022-10-25T07:21:20.093Z,8.70
2022-10-25T07:23:48.603Z,11.20
2022-10-25T07:26:31.103Z,5.72
2022-10-25T07:29:00.186Z,9.18
2022-10-25T07:31:44.323Z,9.68
2022-10-25T07:34:14.349Z,15.10
2022-10-25T07:36:41.573Z,10.45
2022-10-25T07:39:08.807Z,22.42
2022-10-25T07:41:35.873Z,15.18
2022-10-25T07:44:02.887Z,14.85
2022-10-25T07:46:29.883Z,9.65
2022-10-25T07:48:56.849Z,9.75
2022-10-25T07:51:23.825Z,16.60
2022-10-25T07:53:53.076Z,13.88
2022-10-25T07:56:23.786Z,15.43
2022-10-25T07:58:52.181Z,15.75
2022-10-25T08:01:24.755Z,8.32
2022-10-25T08:03:53.389Z,9.60
2022-10-25T08:06:25.269Z,4.93
2022-10-25T08:08:52.688Z,11.60
2022-10-25T08:11:20.026Z,12.68
2022-10-25T08:13:49.757Z,19.20
2022-10-25T08:16:17.090Z,9.65
2022-10-25T08:18:44.272Z,6.50
2022-10-25T08:21:11.354Z,13.45
2022-10-25T08:23:38.499Z,7.07
2022-10-25T08:26:05.789Z,9.93
2022-10-25T08:28:32.947Z,7.63
2022-10-25T08:31:01.142Z,11.57
2022-10-25T08:33:29.115Z,7.55
2022-10-25T08:35:56.333Z,9.40
2022-10-25T08:38:23.426Z,3.47
2022-10-25T08:41:17.858Z,11.77
2022-10-25T08:44:04.391Z,15.05
2022-10-25T08:46:55.696Z,6.82
2022-10-25T08:49:47.524Z,11.48
2022-10-25T08:52:30.134Z,7.60
2022-10-25T08:55:03.267Z,7.00
2022-10-25T08:57:37.998Z,16.08
2022-10-25T09:00:11.361Z,7.93
2022-10-25T09:02:46.117Z,7.63
2022-10-25T09:05:20.583Z,11.15
2022-10-25T09:08:23.568Z,6.70
2022-10-25T09:10:52.636Z,14.20
2022-10-25T09:13:41.595Z,9.35
2022-10-25T09:16:18.576Z,5.57
2022-10-25T09:18:54.968Z,6.40
2022-10-25T09:21:46.488Z,6.30
2022-10-25T09:24:33.759Z,10.27
2022-10-25T09:27:22.766Z,14.65
2022-10-25T09:29:58.133Z,4.75
2022-10-25T09:32:41.814Z,11.63
2022-10-25T09:35:24.082Z,13.07
2022-10-25T09:37:55.246Z,12.40
2022-10-25T09:40:27.433Z,11.93
2022-10-25T09:43:07.731Z,7.00
2022-10-25T09:45:50.531Z,6.63
2022-10-25T09:48:46.475Z,6.47
2022-10-25T09:51:35.502Z,8.80
2022-10-25T09:54:13.685Z,7.43
2022-10-25T09:56:40.674Z,8.75
2022-10-25T09:59:13.637Z,6.75
2022-10-25T10:01:41.400Z,14.20
2022-10-25T10:04:34.185Z,8.52
2022-10-25T10:07:11.799Z,9.20
2022-10-25T10:09:45.721Z,9.60
2022-10-25T10:12:28.579Z,7.97
2022-10-25T10:15:03.338Z,5.13
2022-10-25T10:17:30.729Z,11.73
2022-10-25T10:20:18.504Z,10.18
2022-10-25T10:22:50.411Z,10.68
2022-10-25T10:25:20.821Z,10.60
2022-10-25T10:27:50.507Z,16.20
2022-10-25T10:30:29.401Z,14.48
2022-10-25T10:33:01.102Z,9.75
2022-10-25T10:35:34.203Z,7.73
2022-10-25T10:38:21.617Z,7.00
2022-10-25T10:40:51.739Z,8.00
2022-10-25T10:43:32.615Z,6.72
2022-10-25T10:46:07.831Z,9.25
2022-10-25T10:48:42.776Z,7.60
2022-10-25T10:51:38.992Z,10.73
2022-10-25T10:54:25.308Z,9.02
2022-10-25T10:57:00.468Z,13.45
2022-10-25T10:59:42.411Z,4.57
2022-10-25T11:02:42.426Z,18.20
2022-10-25T11:05:21.775Z,6.82
2022-10-25T11:08:00.032Z,8.00
2022-10-25T11:10:31.054Z,8.02
2022-10-25T11:13:05.307Z,6.60
2022-10-25T11:15:44.512Z,6.28
2022-10-25T11:18:13.515Z,10.13
2022-10-25T11:20:53.206Z,10.38
2022-10-25T11:23:27.496Z,7.50
2022-10-25T11:26:21.597Z,17.05
2022-10-25T11:29:02.870Z,13.52
2022-10-25T11:31:52.031Z,12.43
2022-10-25T11:34:51.547Z,5.60
2022-10-25T11:37:33.845Z,11.15
2022-10-25T11:40:17.720Z,5.53
2022-10-25T11:43:28.130Z,12.05
2022-10-25T11:46:07.384Z,11.55
2022-10-25T11:48:46.506Z,8.32
2022-10-25T11:51:28.530Z,7.97
2022-10-25T11:54:52.687Z,5.83
2022-10-25T11:57:22.452Z,6.60
2022-10-25T12:00:02.849Z,12.68
2022-10-25T12:02:46.674Z,3.25
2022-10-25T12:05:16.963Z,3.70
2022-10-25T12:08:08.830Z,7.15
2022-10-25T12:10:39.742Z,6.00
2022-10-25T12:13:20.978Z,17.90
2022-10-25T12:15:52.097Z,3.20
2022-10-25T12:18:29.352Z,14.00
2022-10-25T12:20:57.431Z,4.38
2022-10-25T12:23:27.855Z,4.68
2022-10-25T12:26:01.191Z,14.40
2022-10-25T12:28:55.810Z,9.45
2022-10-25T12:31:28.897Z,7.15
2022-10-25T12:34:07.684Z,14.25
2022-10-25T12:36:40.210Z,8.48
2022-10-25T12:39:13.103Z,6.35
2022-10-25T12:41:43.187Z,11.38
2022-10-25T12:44:49.883Z,7.50
2022-10-25T12:47:17.002Z,6.90
2022-10-25T12:50:15.287Z,9.05
2022-10-25T12:53:06.810Z,5.75
2022-10-25T12:55:40.261Z,3.17
2022-10-25T12:58:22.535Z,7.80
2022-10-25T13:00:52.622Z,7.55
2022-10-25T13:03:37.583Z,10.27
2022-10-25T13:06:19.560Z,2.25
2022-10-25T13:08:47.431Z,5.90
2022-10-25T13:11:14.723Z,3.67
2022-10-25T13:13:51.736Z,7.88
2022-10-25T13:16:28.332Z,3.53
2022-10-25T13:19:25.970Z,12.02
2022-10-25T13:22:34.038Z,8.65
2022-10-25T13:25:13.455Z,11.82
2022-10-25T13:28:15.553Z,4.03
2022-10-25T13:30:43.731Z,4.47
2022-10-25T13:33:27.148Z,3.88
2022-10-25T13:35:54.172Z,3.17
2022-10-25T13:38:27.350Z,5.85
2022-10-25T13:41:17.043Z,6.60
2022-10-25T13:44:02.413Z,14.30
2022-10-25T13:46:33.680Z,5.40
2022-10-25T13:49:03.527Z,2.85
2022-10-25T13:51:32.635Z,7.07
2022-10-25T13:54:07.129Z,5.97
2022-10-25T13:56:47.875Z,5.65
2022-10-25T13:59:36.746Z,16.15
2022-10-25T14:02:19.753Z,9.85
2022-10-25T14:04:47.224Z,5.70
2022-10-25T14:07:42.118Z,8.30
2022-10-25T14:10:22.911Z,11.32
2022-10-25T14:12:53.508Z,9.25
2022-10-25T14:15:46.872Z,3.05
2022-10-25T14:18:19.502Z,6.57
2022-10-25T14:23:21.074Z,7.47
2022-10-25T14:25:58.225Z,4.13
2022-10-25T14:28:30.355Z,4.68
2022-10-25T14:31:02.697Z,7.28
2022-10-25T14:33:35.492Z,6.65
2022-10-25T14:36:04.870Z,3.85
2022-10-25T14:38:35.430Z,9.38
2022-10-25T14:41:10.838Z,13.25
2022-10-25T14:43:39.168Z,1.25
2022-10-25T14:46:06.109Z,7.28
2022-10-25T14:51:06.140Z,3.47
2022-10-25T14:53:34.123Z,6.10
2022-10-25T14:56:03.874Z,4.13
2022-10-25T14:58:42.623Z,4.22
2022-10-25T15:01:12.308Z,8.50
2022-10-25T15:03:45.548Z,4.35
2022-10-25T15:06:14.467Z,5.72
2022-10-25T15:08:47.828Z,2.90
2022-10-25T15:11:19.513Z,10.68
2022-10-25T15:13:49.196Z,3.55
2022-10-25T15:16:30.751Z,3.38
2022-10-25T15:19:09.910Z,4.40
2022-10-25T15:21:41.383Z,6.63
2022-10-25T15:24:24.710Z,3.88
2022-10-25T15:27:01.874Z,5.10
2022-10-25T15:29:29.658Z,3.88
2022-10-25T15:31:56.750Z,7.35
2022-10-25T15:34:23.836Z,2.78
2022-10-25T15:36:50.906Z,7.38
2022-10-25T15:39:26.645Z,2.63
2022-10-25T15:41:54.003Z,5.40
2022-10-25T15:44:21.554Z,5.28
2022-10-25T15:46:49.355Z,3.13
2022-10-25T15:49:17.228Z,12.32
2022-10-25T15:51:45.397Z,5.28
2022-10-25T15:54:16.855Z,9.45
2022-10-25T15:56:45.030Z,6.88
2022-10-25T15:59:12.945Z,3.35
2022-10-25T16:01:46.037Z,4.50
2022-10-25T16:04:15.635Z,5.82
2022-10-25T16:06:43.996Z,5.32
2022-10-25T16:09:11.287Z,9.00
2022-10-25T16:11:43.687Z,13.00
2022-10-25T16:14:22.817Z,5.13
2022-10-25T16:16:50.063Z,4.57
2022-10-25T16:19:20.028Z,10.10
2022-10-25T16:21:47.735Z,16.38
2022-10-25T16:24:14.872Z,8.18
2022-10-25T16:26:45.206Z,7.28
2022-10-25T16:29:18.551Z,9.20
2022-10-25T16:31:45.710Z,13.85
2022-10-25T16:34:15.388Z,10.10
2022-10-25T16:36:42.776Z,13.80
2022-10-25T16:39:11.361Z,13.90
2022-10-25T16:41:40.191Z,13.98
2022-10-25T16:44:07.267Z,19.73
2022-10-25T16:46:34.335Z,22.75
2022-10-25T16:49:02.311Z,20.15
2022-10-25T16:51:29.575Z,29.98
2022-10-25T16:53:58.297Z,16.60
2022-10-25T16:56:25.404Z,11.48
2022-10-25T16:58:52.711Z,22.23
2022-10-25T17:01:27.153Z,14.88
2022-10-25T17:03:54.876Z,12.45
2022-10-25T17:06:40.352Z,28.67
2022-10-25T17:09:08.262Z,12.98
2022-10-25T17:11:36.110Z,22.77
2022-10-25T17:14:04.097Z,22.50
2022-10-25T17:16:31.396Z,28.30
2022-10-25T17:18:58.680Z,16.98
2022-10-25T17:21:35.661Z,28.38
2022-10-25T17:24:04.686Z,19.30
2022-10-25T17:26:32.355Z,13.15
2022-10-25T17:29:00.818Z,22.48
2022-10-25T17:31:32.533Z,18.40
2022-10-25T17:34:00.433Z,23.50
2022-10-25T17:36:31.395Z,14.55
2022-10-25T17:39:00.128Z,22.42
2022-10-25T17:41:27.337Z,17.00
2022-10-25T17:43:56.092Z,18.75
2022-10-25T17:46:31.999Z,18.10
2022-10-25T17:49:05.676Z,8.77
2022-10-25T17:51:34.357Z,29.60
2022-10-25T17:54:01.746Z,21.48
2022-10-25T17:56:28.857Z,28.67
2022-10-25T17:58:57.664Z,42.67
2022-10-25T18:01:27.880Z,41.55
2022-10-25T18:03:55.302Z,60.13
2022-10-25T18:06:24.812Z,41.47
2022-10-25T18:08:54.276Z,29.02
2022-10-25T18:11:23.376Z,21.25
2022-10-25T18:13:52.622Z,24.80
2022-10-25T18:16:21.681Z,18.65
2022-10-25T18:18:48.958Z,18.77
2022-10-25T18:21:16.602Z,19.67
2022-10-25T18:23:43.975Z,19.00
2022-10-25T18:26:12.659Z,21.52
2022-10-25T18:28:40.009Z,19.48
2022-10-25T18:31:09.622Z,22.42
2022-10-25T18:33:38.739Z,32.72
2022-10-25T18:36:12.410Z,21.77
2022-10-25T18:38:39.503Z,27.38
2022-10-25T18:41:26.791Z,26.05
2022-10-25T18:43:54.891Z,24.40
2022-10-25T18:46:22.852Z,20.25
2022-10-25T18:48:51.494Z,17.75
2022-10-25T18:51:20.086Z,22.08
2022-10-25T18:53:47.389Z,17.45
2022-10-25T18:56:19.583Z,17.77
2022-10-25T18:58:49.521Z,39.03
2022-10-25T19:01:20.344Z,24.45
2022-10-25T19:03:47.479Z,12.27
2022-10-25T19:06:14.517Z,19.50
2022-10-25T19:08:42.400Z,19.42
2022-10-25T19:11:12.118Z,16.13
2022-10-25T19:13:40.265Z,17.73
2022-10-25T19:16:08.192Z,21.00
2022-10-25T19:18:37.227Z,21.90
2022-10-25T19:21:07.491Z,29.85
2022-10-25T19:23:35.562Z,36.55
2022-10-25T19:26:04.403Z,21.30
2022-10-25T19:28:32.252Z,17.58
2022-10-25T19:31:06.520Z,22.23
2022-10-25T19:33:33.875Z,36.00
2022-10-25T19:36:05.885Z,26.98
2022-10-25T19:38:33.018Z,22.60
2022-10-25T19:41:01.757Z,21.10
2022-10-25T19:43:29.185Z,25.10
2022-10-25T19:46:00.579Z,39.15
2022-10-25T19:48:31.155Z,27.85
2022-10-25T19:51:07.819Z,20.50
2022-10-25T19:53:34.967Z,28.67
2022-10-25T19:56:07.259Z,38.65
2022-10-25T19:58:35.291Z,53.85
2022-10-25T20:01:10.418Z,42.35
2022-10-25T20:03:38.710Z,41.47
2022-10-25T20:06:08.999Z,35.42
2022-10-25T20:08:38.324Z,39.17
2022-10-25T20:11:06.482Z,56.55
2022-10-25T20:13:33.494Z,70.82
2022-10-25T20:16:00.714Z,63.83
2022-10-25T20:18:34.789Z,59.97
2022-10-25T20:21:12.980Z,72.55
2022-10-25T20:23:41.621Z,48.80
2022-10-25T20:26:13.485Z,50.67
2022-10-25T20:28:41.952Z,30.40
2022-10-25T20:31:09.081Z,34.63
2022-10-25T20:33:36.768Z,32.35
2022-10-25T20:36:07.348Z,27.38
2022-10-25T20:38:35.828Z,39.58
2022-10-25T20:41:13.842Z,34.28
2022-10-25T20:43:43.032Z,25.80
2022-10-25T20:46:10.021Z,36.42
2022-10-25T20:48:37.053Z,23.52
2022-10-25T20:51:07.614Z,22.27
2022-10-25T20:53:35.929Z,30.30
2022-10-25T20:56:03.171Z,14.75
2022-10-25T20:58:30.327Z,22.02
2022-10-25T21:00:57.593Z,30.10
2022-10-25T21:03:26.978Z,22.15
2022-10-25T21:05:56.408Z,30.20
2022-10-25T21:08:23.935Z,35.33
2022-10-25T21:10:57.799Z,21.35
2022-10-25T21:13:26.679Z,23.80
2022-10-25T21:15:53.674Z,28.80
2022-10-25T21:18:20.987Z,25.60
2022-10-25T21:20:48.866Z,29.08
2022-10-25T21:23:16.021Z,40.78
2022-10-25T21:25:42.989Z,37.22
2022-10-25T21:28:09.977Z,33.08
2022-10-25T21:30:36.958Z,31.35
2022-10-25T21:33:04.456Z,25.80
2022-10-25T21:35:32.486Z,14.93
2022-10-25T21:37:59.506Z,20.48
2022-10-25T21:40:26.469Z,26.00
2022-10-25T21:42:53.460Z,34.50
2022-10-25T21:45:20.467Z,32.45
2022-10-25T21:47:47.662Z,22.83
2022-10-25T21:50:15.699Z,41.45
2022-10-25T21:52:42.739Z,29.27
2022-10-25T21:55:09.809Z,25.20
2022-10-25T21:57:36.813Z,41.05
2022-10-25T22:00:04.860Z,36.00
2022-10-25T22:02:39.956Z,24.08
2022-10-25T22:05:07.455Z,41.47
2022-10-25T22:07:34.443Z,27.45
2022-10-25T22:10:01.458Z,28.55
2022-10-25T22:12:28.590Z,37.65
2022-10-25T22:14:55.638Z,27.92
2022-10-25T22:17:23.162Z,37.35
2022-10-25T22:19:50.178Z,23.83
2022-10-25T22:22:17.185Z,26.15
2022-10-25T22:24:44.153Z,22.23
2022-10-25T22:27:11.127Z,21.83
2022-10-25T22:29:38.121Z,20.42
2022-10-25T22:32:05.266Z,26.83
2022-10-25T22:34:32.262Z,28.80
2022-10-25T22:37:01.201Z,26.27
2022-10-25T22:39:28.199Z,14.82
2022-10-25T22:41:55.701Z,21.88
2022-10-25T22:46:54.583Z,17.75
2022-10-25T22:49:21.650Z,24.35
2022-10-25T22:51:48.747Z,23.08
2022-10-25T22:54:15.778Z,30.45
2022-10-25T22:56:42.770Z,25.02
2022-10-25T22:59:11.708Z,21.48
2022-10-25T23:01:39.407Z,23.35
2022-10-25T23:04:08.773Z,27.17
2022-10-25T23:06:38.645Z,18.25
2022-10-25T23:09:09.107Z,22.27
2022-10-25T23:11:38.839Z,26.70
2022-10-25T23:14:07.368Z,14.50
2022-10-25T23:16:34.987Z,14.63
2022-10-25T23:19:02.280Z,29.55
2022-10-25T23:21:30.853Z,15.52
2022-10-25T23:23:59.245Z,30.60
2022-10-25T23:26:34.407Z,20.67
2022-10-25T23:29:01.866Z,16.25
2022-10-25T23:31:30.313Z,14.73
2022-10-25T23:33:59.992Z,9.85
2022-10-25T23:36:29.665Z,13.55
2022-10-25T23:38:57.697Z,14.20
2022-10-25T23:41:24.678Z,19.88
2022-10-25T23:43:51.705Z,43.60
2022-10-25T23:46:19.032Z,20.00
2022-10-25T23:48:46.200Z,11.98
2022-10-25T23:51:15.681Z,26.60
2022-10-25T23:53:43.217Z,11.07
2022-10-25T23:56:12.300Z,25.15
2022-10-25T23:58:39.503Z,13.02
